createdAt,value
2017-09-23T00:01:13.450Z,70.80
2017-09-23T00:03:41.208Z,70.50
2017-09-23T00:06:08.867Z,71.30
2017-09-23T00:08:36.554Z,71.30
2017-09-23T00:11:04.293Z,71.20
2017-09-23T00:13:32.909Z,70.60
2017-09-23T00:16:00.565Z,70.30
2017-09-23T00:18:28.313Z,69.90
2017-09-23T00:20:55.974Z,70.30
2017-09-23T00:23:23.642Z,70.60
2017-09-23T00:25:51.410Z,70.20
2017-09-23T00:28:19.107Z,70.30
2017-09-23T00:30:46.773Z,71.40
2017-09-23T00:33:14.501Z,71.90
2017-09-23T00:35:42.169Z,72.30
2017-09-23T00:38:09.889Z,72.00
2017-09-23T00:40:37.590Z,71.60
2017-09-23T00:43:05.249Z,71.70
2017-09-23T00:45:32.931Z,71.90
2017-09-23T00:48:00.669Z,71.50
2017-09-23T00:53:09.782Z,72.50
2017-09-23T00:55:37.450Z,73.90
2017-09-23T00:58:05.136Z,74.60
2017-09-23T01:00:33.841Z,73.40
2017-09-23T01:03:01.525Z,73.40
2017-09-23T01:05:29.234Z,72.90
2017-09-23T01:07:57.805Z,72.60
2017-09-23T01:10:25.477Z,72.90
2017-09-23T01:12:53.157Z,72.70
2017-09-23T01:20:16.276Z,72.50
2017-09-23T01:22:44.366Z,71.80
2017-09-23T01:25:12.029Z,71.70
2017-09-23T01:27:39.702Z,71.80
2017-09-23T01:30:07.465Z,71.60
2017-09-23T01:32:35.152Z,71.10
2017-09-23T01:35:03.651Z,72.20
2017-09-23T01:40:00.027Z,73.50
2017-09-23T01:42:27.688Z,73.50
2017-09-23T01:44:55.433Z,72.80
2017-09-23T01:47:23.109Z,71.60
2017-09-23T01:49:50.777Z,71.70
2017-09-23T01:52:18.527Z,71.90
2017-09-23T01:54:46.204Z,73.00
2017-09-23T01:57:13.867Z,74.00
2017-09-23T01:59:41.592Z,72.60
2017-09-23T02:02:09.269Z,72.40
2017-09-23T02:04:36.949Z,72.50
2017-09-23T02:07:04.686Z,72.60
2017-09-23T02:09:32.337Z,73.10
2017-09-23T02:12:00.810Z,73.30
2017-09-23T02:14:28.542Z,72.30
2017-09-23T02:19:35.400Z,72.60
2017-09-23T02:22:03.073Z,72.50
2017-09-23T02:24:30.743Z,72.80
2017-09-23T02:26:58.471Z,74.40
2017-09-23T02:29:26.139Z,74.70
2017-09-23T02:31:53.812Z,74.90
2017-09-23T02:34:21.567Z,75.00
2017-09-23T02:36:49.240Z,75.90
2017-09-23T02:39:16.911Z,77.30
2017-09-23T02:41:44.649Z,78.40
2017-09-23T02:44:12.325Z,78.30
2017-09-23T02:46:39.996Z,77.40
2017-09-23T02:49:07.741Z,77.50
2017-09-23T02:51:35.416Z,76.60
2017-09-23T02:54:03.089Z,76.60
2017-09-23T02:56:30.822Z,75.50
2017-09-23T02:58:58.481Z,74.80
2017-09-23T03:01:26.156Z,75.60
2017-09-23T03:03:53.937Z,75.50
2017-09-23T03:06:21.610Z,74.50
2017-09-23T03:08:49.281Z,74.70
2017-09-23T03:11:17.004Z,75.30
2017-09-23T03:13:44.667Z,75.40
2017-09-23T03:16:12.339Z,74.70
2017-09-23T03:18:40.071Z,74.30
2017-09-23T03:21:07.731Z,74.60
2017-09-23T03:23:35.409Z,74.70
2017-09-23T03:26:03.153Z,74.40
2017-09-23T03:28:30.833Z,75.10
2017-09-23T03:30:58.508Z,75.60
2017-09-23T03:33:26.247Z,76.10
2017-09-23T03:35:53.925Z,76.60
2017-09-23T03:38:21.601Z,76.30
2017-09-23T03:40:49.330Z,78.20
2017-09-23T03:43:16.994Z,79.60
2017-09-23T03:48:23.851Z,79.00
2017-09-23T03:50:52.463Z,79.60
2017-09-23T03:53:20.133Z,78.70
2017-09-23T03:55:47.880Z,77.30
2017-09-23T03:58:15.552Z,77.10
2017-09-23T04:00:43.220Z,76.70
2017-09-23T04:03:10.953Z,76.30
2017-09-23T04:05:38.618Z,76.40
2017-09-23T04:08:06.289Z,75.60
2017-09-23T04:10:34.052Z,75.90
2017-09-23T04:13:02.453Z,75.60
2017-09-23T04:15:30.132Z,74.90
2017-09-23T04:17:58.725Z,74.70
2017-09-23T04:22:54.069Z,75.00
2017-09-23T04:25:21.807Z,74.80
2017-09-23T04:27:49.477Z,76.60
2017-09-23T04:32:44.792Z,75.60
2017-09-23T04:35:12.432Z,75.30
2017-09-23T04:40:07.722Z,76.10
2017-09-23T04:42:35.339Z,76.30
2017-09-23T04:45:02.956Z,76.90
2017-09-23T04:47:30.648Z,76.40
2017-09-23T04:49:58.262Z,77.30
2017-09-23T04:52:25.876Z,76.80
2017-09-23T04:54:53.552Z,76.30
2017-09-23T04:57:21.208Z,76.90
2017-09-23T04:59:48.823Z,76.20
2017-09-23T05:02:16.504Z,76.50
2017-09-23T05:04:44.115Z,76.30
2017-09-23T05:09:50.885Z,75.70
2017-09-23T05:12:18.499Z,75.90
2017-09-23T05:14:46.110Z,75.50
2017-09-23T05:17:13.786Z,76.10
2017-09-23T05:19:41.399Z,76.50
2017-09-23T05:22:09.010Z,76.10
2017-09-23T05:24:36.680Z,76.10
2017-09-23T05:27:04.292Z,76.50
2017-09-23T05:29:31.902Z,76.90
2017-09-23T05:31:59.569Z,76.20
2017-09-23T05:34:27.183Z,75.80
2017-09-23T05:36:54.805Z,76.70
2017-09-23T05:42:02.080Z,77.30
2017-09-23T05:44:29.776Z,76.90
2017-09-23T05:46:57.386Z,76.10
2017-09-23T05:49:25.000Z,76.10
2017-09-23T05:51:52.699Z,77.00
2017-09-23T05:54:20.317Z,77.20
2017-09-23T05:56:47.928Z,77.50
2017-09-23T05:59:15.631Z,77.80
2017-09-23T06:01:43.245Z,77.20
2017-09-23T06:04:10.857Z,78.50
2017-09-23T06:06:38.557Z,78.20
2017-09-23T06:09:06.173Z,77.90
2017-09-23T06:14:01.505Z,78.90
2017-09-23T06:16:29.124Z,78.70
2017-09-23T06:18:56.739Z,77.90
2017-09-23T06:21:24.418Z,78.00
2017-09-23T06:23:52.037Z,77.60
2017-09-23T06:26:19.653Z,77.40
2017-09-23T06:28:47.346Z,77.90
2017-09-23T06:33:42.587Z,75.50
2017-09-23T06:36:10.264Z,75.50
2017-09-23T06:38:38.700Z,76.30
2017-09-23T06:41:06.307Z,75.20
2017-09-23T06:43:33.979Z,75.20
2017-09-23T06:46:01.599Z,76.20
2017-09-23T06:48:29.226Z,74.60
2017-09-23T06:50:56.920Z,74.70
2017-09-23T06:53:24.538Z,71.30
2017-09-23T06:58:31.305Z,71.50
2017-09-23T07:00:58.924Z,71.20
2017-09-23T07:03:26.537Z,69.80
2017-09-23T07:05:54.224Z,69.10
2017-09-23T07:08:21.844Z,69.30
2017-09-23T07:10:49.459Z,71.50
2017-09-23T07:15:44.751Z,71.00
2017-09-23T07:18:12.372Z,68.40
2017-09-23T07:20:40.059Z,67.60
2017-09-23T07:23:07.678Z,69.30
2017-09-23T07:25:35.297Z,68.00
2017-09-23T07:28:03.000Z,70.80
2017-09-23T07:30:30.620Z,68.10
2017-09-23T07:32:58.235Z,67.50
2017-09-23T07:35:25.910Z,67.00
2017-09-23T07:37:53.532Z,63.80
2017-09-23T07:40:21.169Z,64.40
2017-09-23T07:42:48.850Z,62.40
2017-09-23T07:45:17.282Z,63.30
2017-09-23T07:47:44.903Z,62.50
2017-09-23T07:50:12.568Z,60.80
2017-09-23T07:52:40.188Z,62.10
2017-09-23T07:55:07.811Z,61.00
2017-09-23T07:57:35.514Z,61.20
2017-09-23T08:00:03.129Z,61.20
2017-09-23T08:02:30.750Z,61.30
2017-09-23T08:04:59.253Z,60.40
2017-09-23T08:07:26.875Z,60.80
2017-09-23T08:12:33.659Z,60.40
2017-09-23T08:17:28.886Z,60.60
2017-09-23T08:22:24.171Z,57.90
2017-09-23T08:24:51.797Z,60.60
2017-09-23T08:27:19.472Z,60.30
2017-09-23T08:29:47.095Z,56.80
2017-09-23T08:34:42.368Z,57.70
2017-09-23T08:37:09.986Z,57.40
2017-09-23T08:39:38.560Z,54.20
2017-09-23T08:42:06.246Z,56.50
2017-09-23T08:44:33.868Z,54.80
2017-09-23T08:47:01.483Z,53.90
2017-09-23T08:49:29.166Z,54.80
2017-09-23T08:51:56.781Z,55.40
2017-09-23T08:54:24.404Z,51.90
2017-09-23T08:59:19.705Z,51.00
2017-09-23T09:01:47.325Z,50.30
2017-09-23T09:04:15.002Z,49.30
2017-09-23T09:06:42.626Z,49.80
2017-09-23T09:09:10.246Z,48.90
2017-09-23T09:11:38.052Z,49.40
2017-09-23T09:14:05.667Z,49.90
2017-09-23T09:16:33.285Z,47.20
2017-09-23T09:19:01.152Z,46.90
2017-09-23T09:21:28.774Z,49.40
2017-09-23T09:23:56.384Z,47.80
2017-09-23T09:26:24.062Z,44.20
2017-09-23T09:28:51.698Z,45.80
2017-09-23T09:31:19.300Z,42.90
2017-09-23T09:38:53.736Z,43.80
2017-09-23T09:41:21.367Z,42.20
2017-09-23T09:43:48.987Z,44.80
2017-09-23T09:46:16.674Z,44.10
2017-09-23T09:48:44.285Z,42.70
2017-09-23T09:51:12.722Z,41.50
2017-09-23T09:53:40.404Z,40.90
2017-09-23T09:56:08.015Z,38.70
2017-09-23T09:58:35.630Z,38.80
2017-09-23T10:01:03.328Z,38.80
2017-09-23T10:03:30.955Z,40.00
2017-09-23T10:05:58.590Z,39.00
2017-09-23T10:08:27.110Z,41.40
2017-09-23T10:10:54.727Z,39.70
2017-09-23T10:13:34.235Z,41.00
2017-09-23T10:16:01.859Z,38.90
2017-09-23T10:18:29.477Z,39.60
2017-09-23T10:20:57.208Z,39.80
2017-09-23T10:23:24.830Z,37.40
2017-09-23T10:25:52.450Z,39.80
2017-09-23T10:28:20.156Z,39.10
2017-09-23T10:30:47.780Z,41.70
2017-09-23T10:33:15.400Z,39.70
2017-09-23T10:35:43.070Z,39.70
2017-09-23T10:38:10.691Z,36.60
2017-09-23T10:40:38.324Z,38.40
2017-09-23T10:43:06.022Z,37.60
2017-09-23T10:45:33.638Z,36.40
2017-09-23T10:48:01.264Z,37.50
2017-09-23T10:50:28.936Z,39.50
2017-09-23T10:52:56.565Z,39.90
2017-09-23T10:55:24.185Z,41.70
2017-09-23T10:57:51.887Z,43.00
2017-09-23T11:00:19.507Z,39.10
2017-09-23T11:02:47.130Z,38.70
2017-09-23T11:07:55.983Z,37.70
2017-09-23T11:10:23.691Z,35.40
2017-09-23T11:12:51.316Z,36.60
2017-09-23T11:15:19.820Z,38.20
2017-09-23T11:17:47.497Z,36.90
2017-09-23T11:20:16.064Z,36.10
2017-09-23T11:22:43.687Z,37.30
2017-09-23T11:25:12.225Z,36.40
2017-09-23T11:27:39.828Z,39.10
2017-09-23T11:30:07.451Z,39.70
2017-09-23T11:32:35.120Z,39.70
2017-09-23T11:35:02.743Z,41.20
2017-09-23T11:37:30.363Z,39.80
2017-09-23T11:39:58.064Z,39.60
2017-09-23T11:42:26.444Z,39.70
2017-09-23T11:44:54.077Z,41.50
2017-09-23T11:47:21.770Z,39.10
2017-09-23T11:49:49.381Z,39.50
2017-09-23T11:52:17.005Z,39.80
2017-09-23T11:54:44.699Z,38.70
2017-09-23T11:57:12.332Z,40.30
2017-09-23T11:59:39.977Z,41.10
2017-09-23T12:02:07.697Z,38.80
2017-09-23T12:04:35.304Z,38.90
2017-09-23T12:07:02.922Z,40.30
2017-09-23T12:09:30.589Z,38.00
2017-09-23T12:11:58.208Z,37.80
2017-09-23T12:14:25.828Z,36.60
2017-09-23T12:16:53.519Z,37.60
2017-09-23T12:21:48.765Z,38.70
2017-09-23T12:24:16.439Z,39.40
2017-09-23T12:26:44.059Z,37.50
2017-09-23T12:29:11.673Z,37.30
2017-09-23T12:31:39.383Z,36.60
2017-09-23T12:36:46.142Z,38.00
2017-09-23T12:39:13.763Z,36.50
2017-09-23T12:41:41.372Z,35.80
2017-09-23T12:44:09.049Z,36.80
2017-09-23T12:49:04.284Z,36.60
2017-09-23T12:51:32.818Z,37.00
2017-09-23T12:54:00.437Z,38.00
2017-09-23T12:56:29.000Z,40.30
2017-09-23T12:58:56.674Z,39.40
2017-09-23T13:01:25.156Z,39.70
2017-09-23T13:03:52.759Z,39.60
2017-09-23T13:06:20.474Z,40.10
2017-09-23T13:08:48.085Z,40.10
2017-09-23T13:11:15.707Z,39.30
2017-09-23T13:13:43.384Z,39.60
2017-09-23T13:16:11.012Z,41.10
2017-09-23T13:18:38.627Z,38.60
2017-09-23T13:21:06.323Z,39.80
2017-09-23T13:23:33.937Z,40.60
2017-09-23T13:26:01.559Z,41.20
2017-09-23T13:28:29.240Z,42.30
2017-09-23T13:30:56.856Z,41.90
2017-09-23T13:35:53.034Z,41.90
2017-09-23T13:38:20.665Z,42.70
2017-09-23T13:40:48.291Z,42.20
2017-09-23T13:43:15.992Z,42.00
2017-09-23T13:45:43.616Z,42.10
2017-09-23T13:48:11.230Z,42.10
2017-09-23T13:50:38.902Z,41.80
2017-09-23T13:53:06.522Z,41.70
2017-09-23T13:58:13.307Z,41.90
2017-09-23T14:05:36.976Z,42.00
2017-09-23T14:08:04.594Z,43.20
2017-09-23T14:10:32.212Z,43.50
2017-09-23T14:12:59.897Z,43.00
2017-09-23T14:15:27.514Z,44.50
2017-09-23T14:17:55.949Z,45.00
2017-09-23T14:20:24.551Z,45.50
2017-09-23T14:22:52.166Z,44.80
2017-09-23T14:25:19.794Z,43.90
2017-09-23T14:27:47.494Z,44.70
2017-09-23T14:30:15.110Z,44.90
2017-09-23T14:32:43.616Z,45.20
2017-09-23T14:35:11.313Z,45.50
2017-09-23T14:37:38.927Z,45.70
2017-09-23T14:40:06.547Z,45.20
2017-09-23T14:42:34.225Z,46.20
2017-09-23T14:45:01.842Z,45.60
2017-09-23T14:47:29.460Z,44.50
2017-09-23T14:49:57.125Z,43.70
2017-09-23T14:52:24.739Z,43.20
2017-09-23T14:54:52.358Z,42.30
2017-09-23T14:57:20.054Z,43.00
2017-09-23T14:59:47.674Z,42.10
2017-09-23T15:04:42.958Z,43.60
2017-09-23T15:07:10.576Z,44.30
2017-09-23T15:09:38.195Z,44.00
2017-09-23T15:12:05.994Z,44.30
2017-09-23T15:17:01.109Z,44.30
2017-09-23T15:19:28.796Z,43.60
2017-09-23T15:21:56.417Z,45.00
2017-09-23T15:24:24.031Z,45.00
2017-09-23T15:29:30.803Z,45.50
2017-09-23T15:31:58.494Z,44.70
2017-09-23T15:34:26.115Z,45.40
2017-09-23T15:36:53.728Z,47.30
2017-09-23T15:39:21.435Z,47.00
2017-09-23T15:41:49.048Z,47.70
2017-09-23T15:44:17.478Z,47.40
2017-09-23T15:46:45.153Z,47.80
2017-09-23T15:49:12.774Z,47.40
2017-09-23T15:54:08.085Z,48.70
2017-09-23T15:56:35.701Z,48.90
2017-09-23T15:59:03.320Z,49.80
2017-09-23T16:01:30.994Z,49.90
2017-09-23T16:03:58.611Z,49.70
2017-09-23T16:06:26.231Z,49.80
2017-09-23T16:08:53.905Z,50.60
2017-09-23T16:11:22.468Z,50.40
2017-09-23T16:13:50.088Z,51.00
2017-09-23T16:18:45.425Z,51.30
2017-09-23T16:21:13.046Z,52.70
2017-09-23T16:23:40.717Z,52.60
2017-09-23T16:26:08.341Z,52.80
2017-09-23T16:28:35.966Z,53.20
2017-09-23T16:33:44.186Z,53.50
2017-09-23T16:36:11.871Z,53.60
2017-09-23T16:38:39.490Z,52.50
2017-09-23T16:41:07.201Z,52.20
2017-09-23T16:43:34.783Z,52.70
2017-09-23T16:46:02.395Z,52.70
2017-09-23T16:48:30.016Z,52.90
2017-09-23T16:50:57.691Z,53.30
2017-09-23T16:53:25.306Z,53.20
2017-09-23T16:55:52.927Z,53.70
2017-09-23T16:58:21.442Z,55.10
2017-09-23T17:00:49.071Z,55.50
2017-09-23T17:03:17.629Z,56.20
2017-09-23T17:08:12.930Z,57.00
2017-09-23T17:10:40.539Z,56.30
2017-09-23T17:13:08.260Z,56.40
2017-09-23T17:15:35.879Z,56.60
2017-09-23T17:18:04.316Z,56.40
2017-09-23T17:20:31.996Z,56.20
2017-09-23T17:22:59.612Z,57.20
2017-09-23T17:25:27.232Z,57.00
2017-09-23T17:27:54.923Z,57.90
2017-09-23T17:30:22.540Z,57.60
2017-09-23T17:32:50.164Z,58.10
2017-09-23T17:37:45.482Z,59.20
2017-09-23T17:40:13.386Z,58.60
2017-09-23T17:42:41.069Z,58.20
2017-09-23T17:45:08.703Z,58.10
2017-09-23T17:47:36.334Z,59.10
2017-09-23T17:50:04.024Z,58.10
2017-09-23T17:52:31.650Z,59.00
2017-09-23T17:54:59.371Z,59.40
2017-09-23T18:00:06.127Z,59.10
2017-09-23T18:02:33.837Z,58.40
2017-09-23T18:05:01.463Z,60.00
2017-09-23T18:07:29.107Z,59.40
2017-09-23T18:09:56.777Z,60.40
2017-09-23T18:12:24.396Z,59.50
2017-09-23T18:14:52.014Z,59.70
2017-09-23T18:17:19.690Z,59.70
2017-09-23T18:19:47.312Z,59.60
2017-09-23T18:22:14.935Z,61.40
2017-09-23T18:24:42.639Z,60.70
2017-09-23T18:27:10.261Z,59.90
2017-09-23T18:29:37.875Z,60.40
2017-09-23T18:32:05.553Z,61.10
2017-09-23T18:34:33.172Z,60.80
2017-09-23T18:37:00.797Z,61.40
2017-09-23T18:39:28.482Z,62.90
2017-09-23T18:41:56.112Z,61.30
2017-09-23T18:44:23.727Z,61.50
2017-09-23T18:46:51.397Z,60.50
2017-09-23T18:49:19.024Z,62.40
2017-09-23T18:51:46.659Z,62.00
2017-09-23T18:54:14.346Z,61.00
2017-09-23T18:56:41.967Z,61.60
2017-09-23T18:59:09.620Z,61.00
2017-09-23T19:01:37.269Z,62.40
2017-09-23T19:04:04.892Z,64.00
2017-09-23T19:06:33.261Z,65.30
2017-09-23T19:09:01.793Z,64.30
2017-09-23T19:11:29.417Z,64.10
2017-09-23T19:13:57.023Z,63.50
2017-09-23T19:16:24.702Z,63.80
2017-09-23T19:18:52.328Z,64.40
2017-09-23T19:21:19.945Z,64.00
2017-09-23T19:23:47.621Z,64.50
2017-09-23T19:28:54.399Z,66.70
2017-09-23T19:31:22.058Z,67.00
2017-09-23T19:33:49.680Z,66.90
2017-09-23T19:36:17.350Z,66.30
2017-09-23T19:38:44.964Z,66.90
2017-09-23T19:41:12.582Z,66.20
2017-09-23T19:46:08.620Z,65.40
2017-09-23T19:48:37.037Z,66.10
2017-09-23T19:51:04.703Z,66.70
2017-09-23T19:53:32.329Z,65.50
2017-09-23T19:56:00.066Z,64.90
2017-09-23T19:58:27.647Z,65.60
2017-09-23T20:00:55.272Z,67.10
2017-09-23T20:03:22.889Z,66.80
2017-09-23T20:05:50.586Z,67.00
2017-09-23T20:08:18.213Z,66.00
2017-09-23T20:10:45.836Z,66.50
2017-09-23T20:13:13.512Z,65.40
2017-09-23T20:15:41.130Z,65.80
2017-09-23T20:18:08.747Z,65.90
2017-09-23T20:20:36.426Z,66.30
2017-09-23T20:23:04.051Z,66.90
2017-09-23T20:25:31.684Z,67.20
2017-09-23T20:27:59.380Z,66.30
2017-09-23T20:30:27.008Z,67.30
2017-09-23T20:32:54.631Z,67.70
2017-09-23T20:35:22.297Z,68.30
2017-09-23T20:37:49.930Z,66.90
2017-09-23T20:40:17.542Z,67.10
2017-09-23T20:42:46.176Z,67.50
2017-09-23T20:45:13.803Z,67.10
2017-09-23T20:50:09.091Z,67.90
2017-09-23T20:55:15.883Z,67.80
2017-09-23T20:57:43.519Z,68.80
2017-09-23T21:00:11.148Z,68.70
2017-09-23T21:02:38.815Z,67.90
2017-09-23T21:05:06.432Z,67.90
2017-09-23T21:07:34.266Z,67.40
2017-09-23T21:10:02.224Z,68.30
2017-09-23T21:12:29.844Z,67.90
2017-09-23T21:14:57.489Z,67.60
2017-09-23T21:17:25.167Z,67.90
2017-09-23T21:22:20.713Z,69.10
2017-09-23T21:24:48.590Z,69.80
2017-09-23T21:27:16.206Z,69.50
2017-09-23T21:32:11.502Z,68.60
2017-09-23T21:34:39.121Z,68.40
2017-09-23T21:37:06.737Z,69.40
2017-09-23T21:39:34.424Z,70.40
2017-09-23T21:42:02.096Z,71.40
2017-09-23T21:44:29.713Z,71.80
2017-09-23T21:46:57.414Z,72.00
2017-09-23T21:49:25.034Z,71.80
2017-09-23T21:51:52.665Z,71.20
2017-09-23T21:54:20.676Z,70.70
2017-09-23T21:56:48.638Z,71.10
2017-09-23T21:59:16.133Z,70.60
2017-09-23T22:01:44.002Z,69.20
2017-09-23T22:04:11.609Z,69.90
2017-09-23T22:06:39.231Z,70.30
2017-09-23T22:09:06.943Z,70.10
2017-09-23T22:11:35.279Z,70.10
2017-09-23T22:14:02.895Z,70.80
2017-09-23T22:16:30.568Z,70.00
2017-09-23T22:21:37.401Z,69.40
2017-09-23T22:24:05.017Z,70.30
2017-09-23T22:26:32.630Z,70.80
2017-09-23T22:29:01.508Z,71.30
2017-09-23T22:31:29.060Z,72.80
2017-09-23T22:34:00.262Z,73.20
2017-09-23T22:36:27.680Z,72.50
2017-09-23T22:38:55.304Z,72.40
2017-09-23T22:41:22.925Z,73.40
2017-09-23T22:43:50.608Z,72.90
2017-09-23T22:46:18.232Z,74.00
2017-09-23T22:48:45.851Z,72.20
2017-09-23T22:51:13.550Z,71.80
2017-09-23T22:53:41.168Z,71.20
2017-09-23T22:56:08.786Z,71.20
2017-09-23T23:01:04.099Z,69.90
2017-09-23T23:03:31.715Z,71.20
2017-09-23T23:05:59.391Z,71.70
2017-09-23T23:08:27.009Z,72.30
2017-09-23T23:10:54.647Z,72.70
2017-09-23T23:13:22.393Z,72.40
2017-09-23T23:15:50.017Z,72.10
2017-09-23T23:18:17.639Z,71.90
2017-09-23T23:20:45.315Z,72.20
2017-09-23T23:23:12.935Z,72.00
2017-09-23T23:25:40.554Z,71.90
2017-09-23T23:28:08.258Z,73.40
2017-09-23T23:30:35.876Z,74.10
2017-09-23T23:33:03.500Z,74.30
2017-09-23T23:35:31.174Z,74.20
2017-09-23T23:37:58.793Z,74.20
2017-09-23T23:40:26.419Z,74.70
2017-09-23T23:42:54.092Z,74.70
2017-09-23T23:48:02.872Z,74.80
2017-09-23T23:52:58.109Z,74.00
2017-09-23T23:55:25.804Z,73.50
2017-09-23T23:57:53.433Z,73.40
